sensor_id;sensor_type;location;lat;lon;timestamp;noise_LAeq;noise_LA_min;noise_LA_max;noise_LA01;noise_LA95
58303;Laerm;44109;52.398;7.024;2023-06-10T00:05:13;48.84;33.19;58.77;;
58303;Laerm;44109;52.398;7.024;2023-06-10T00:07:42;48.63;33.13;58.38;;
58303;Laerm;44109;52.398;7.024;2023-06-10T00:10:12;48.66;32.92;59.54;;
58303;Laerm;44109;52.398;7.024;2023-06-10T00:12:40;48.70;33.39;58.28;;
58303;Laerm;44109;52.398;7.024;2023-06-10T00:15:10;48.45;32.52;58.48;;
58303;Laerm;44109;52.398;7.024;2023-06-10T00:17:38;48.54;32.65;58.51;;
58303;Laerm;44109;52.398;7.024;2023-06-10T00:20:09;48.53;32.80;58.55;;
58303;Laerm;44109;52.398;7.024;2023-06-10T00:22:38;48.53;33.11;58.25;;
58303;Laerm;44109;52.398;7.024;2023-06-10T00:25:08;48.53;32.93;59.09;;
58303;Laerm;44109;52.398;7.024;2023-06-10T00:27:36;48.47;32.60;58.40;;
58303;Laerm;44109;52.398;7.024;2023-06-10T00:30:09;48.45;32.39;58.27;;
58303;Laerm;44109;52.398;7.024;2023-06-10T00:32:37;47.99;32.55;58.32;;
58303;Laerm;44109;52.398;7.024;2023-06-10T00:35:06;48.36;32.74;58.27;;
58303;Laerm;44109;52.398;7.024;2023-06-10T00:37:34;48.43;33.03;58.39;;
58303;Laerm;44109;52.398;7.024;2023-06-10T00:40:02;48.45;32.47;58.23;;
58303;Laerm;44109;52.398;7.024;2023-06-10T00:42:31;48.53;32.79;58.24;;
58303;Laerm;44109;52.398;7.024;2023-06-10T00:44:58;48.52;32.74;58.52;;
58303;Laerm;44109;52.398;7.024;2023-06-10T00:47:28;48.49;31.97;58.63;;
58303;Laerm;44109;52.398;7.024;2023-06-10T00:49:57;48.50;32.10;58.54;;
58303;Laerm;44109;52.398;7.024;2023-06-10T00:52:28;48.35;33.19;58.49;;
58303;Laerm;44109;52.398;7.024;2023-06-10T00:54:56;48.51;32.42;58.30;;
58303;Laerm;44109;52.398;7.024;2023-06-10T00:57:25;48.34;32.17;58.22;;
58303;Laerm;44109;52.398;7.024;2023-06-10T00:59:54;48.36;32.00;58.52;;
58303;Laerm;44109;52.398;7.024;2023-06-10T01:02:22;48.43;31.80;58.44;;
58303;Laerm;44109;52.398;7.024;2023-06-10T01:04:51;48.39;31.64;58.51;;
58303;Laerm;44109;52.398;7.024;2023-06-10T01:07:25;48.19;32.53;58.33;;
58303;Laerm;44109;52.398;7.024;2023-06-10T01:10:02;48.03;32.45;58.29;;
58303;Laerm;44109;52.398;7.024;2023-06-10T01:12:39;47.92;32.29;58.24;;
58303;Laerm;44109;52.398;7.024;2023-06-10T01:15:09;48.15;32.38;58.44;;
58303;Laerm;44109;52.398;7.024;2023-06-10T01:17:54;47.92;32.16;58.45;;
58303;Laerm;44109;52.398;7.024;2023-06-10T01:20:25;48.17;31.89;58.11;;
58303;Laerm;44109;52.398;7.024;2023-06-10T01:22:56;48.09;32.03;58.10;;
58303;Laerm;44109;52.398;7.024;2023-06-10T01:25:26;48.16;31.96;58.32;;
58303;Laerm;44109;52.398;7.024;2023-06-10T01:28:04;47.92;31.92;58.30;;
58303;Laerm;44109;52.398;7.024;2023-06-10T01:30:40;48.01;31.83;58.30;;
58303;Laerm;44109;52.398;7.024;2023-06-10T01:33:12;48.11;32.08;58.53;;
58303;Laerm;44109;52.398;7.024;2023-06-10T01:35:44;48.16;32.40;58.36;;
58303;Laerm;44109;52.398;7.024;2023-06-10T01:38:15;48.16;32.03;58.30;;
58303;Laerm;44109;52.398;7.024;2023-06-10T01:40:46;47.80;31.93;58.38;;
58303;Laerm;44109;52.398;7.024;2023-06-10T01:43:15;48.22;32.35;58.77;;
58303;Laerm;44109;52.398;7.024;2023-06-10T01:45:43;48.31;32.22;58.32;;
58303;Laerm;44109;52.398;7.024;2023-06-10T01:48:10;48.41;31.99;58.61;;
58303;Laerm;44109;52.398;7.024;2023-06-10T01:50:38;48.30;31.66;58.39;;
58303;Laerm;44109;52.398;7.024;2023-06-10T01:53:06;48.52;31.84;58.74;;
58303;Laerm;44109;52.398;7.024;2023-06-10T01:55:35;48.29;31.42;58.57;;
58303;Laerm;44109;52.398;7.024;2023-06-10T01:58:03;48.47;31.57;58.88;;
58303;Laerm;44109;52.398;7.024;2023-06-10T02:00:30;48.62;32.03;58.69;;
58303;Laerm;44109;52.398;7.024;2023-06-10T02:02:58;48.61;31.53;58.77;;
58303;Laerm;44109;52.398;7.024;2023-06-10T02:05:25;48.59;32.12;58.75;;
58303;Laerm;44109;52.398;7.024;2023-06-10T02:07:53;48.60;32.34;58.65;;
58303;Laerm;44109;52.398;7.024;2023-06-10T02:10:21;50.71;32.96;65.01;;
58303;Laerm;44109;52.398;7.024;2023-06-10T02:12:50;51.99;34.81;65.04;;
58303;Laerm;44109;52.398;7.024;2023-06-10T02:15:17;52.79;34.07;66.43;;
58303;Laerm;44109;52.398;7.024;2023-06-10T02:17:45;52.63;33.90;65.90;;
58303;Laerm;44109;52.398;7.024;2023-06-10T02:20:12;52.20;34.41;66.24;;
58303;Laerm;44109;52.398;7.024;2023-06-10T02:22:40;53.56;33.66;71.29;;
58303;Laerm;44109;52.398;7.024;2023-06-10T02:25:09;54.72;34.32;73.80;;
58303;Laerm;44109;52.398;7.024;2023-06-10T02:27:36;53.19;34.23;73.86;;
58303;Laerm;44109;52.398;7.024;2023-06-10T02:30:07;55.32;34.20;77.52;;
58303;Laerm;44109;52.398;7.024;2023-06-10T02:32:36;51.99;35.31;66.63;;
58303;Laerm;44109;52.398;7.024;2023-06-10T02:35:05;49.65;34.13;64.64;;
58303;Laerm;44109;52.398;7.024;2023-06-10T02:37:33;48.97;34.57;58.12;;
58303;Laerm;44109;52.398;7.024;2023-06-10T02:40:00;51.36;33.88;66.29;;
58303;Laerm;44109;52.398;7.024;2023-06-10T02:42:31;48.84;33.62;59.82;;
58303;Laerm;44109;52.398;7.024;2023-06-10T02:44:58;48.77;33.47;58.53;;
58303;Laerm;44109;52.398;7.024;2023-06-10T02:47:28;48.84;33.60;58.33;;
58303;Laerm;44109;52.398;7.024;2023-06-10T02:49:58;49.71;33.98;63.90;;
58303;Laerm;44109;52.398;7.024;2023-06-10T02:52:26;50.97;33.31;63.11;;
58303;Laerm;44109;52.398;7.024;2023-06-10T02:54:53;52.84;34.12;66.67;;
58303;Laerm;44109;52.398;7.024;2023-06-10T02:57:21;53.78;33.47;68.61;;
58303;Laerm;44109;52.398;7.024;2023-06-10T02:59:49;51.09;34.01;65.14;;
58303;Laerm;44109;52.398;7.024;2023-06-10T03:02:17;52.27;33.59;68.30;;
58303;Laerm;44109;52.398;7.024;2023-06-10T03:04:47;51.01;34.43;63.40;;
58303;Laerm;44109;52.398;7.024;2023-06-10T03:07:16;51.44;34.00;65.21;;
58303;Laerm;44109;52.398;7.024;2023-06-10T03:09:44;55.99;34.18;69.26;;
58303;Laerm;44109;52.398;7.024;2023-06-10T03:12:12;53.85;34.33;66.94;;
58303;Laerm;44109;52.398;7.024;2023-06-10T03:14:41;53.11;34.25;68.10;;
58303;Laerm;44109;52.398;7.024;2023-06-10T03:17:08;52.44;34.82;67.25;;
58303;Laerm;44109;52.398;7.024;2023-06-10T03:19:36;53.23;34.36;66.63;;
58303;Laerm;44109;52.398;7.024;2023-06-10T03:22:10;52.00;34.16;65.55;;
58303;Laerm;44109;52.398;7.024;2023-06-10T03:24:38;52.31;33.76;68.00;;
58303;Laerm;44109;52.398;7.024;2023-06-10T03:27:07;52.98;34.23;66.56;;
58303;Laerm;44109;52.398;7.024;2023-06-10T03:29:35;49.93;34.28;73.94;;
58303;Laerm;44109;52.398;7.024;2023-06-10T03:32:04;49.80;34.72;66.54;;
58303;Laerm;44109;52.398;7.024;2023-06-10T03:34:31;49.86;36.13;69.00;;
58303;Laerm;44109;52.398;7.024;2023-06-10T03:37:00;50.62;36.33;64.01;;
58303;Laerm;44109;52.398;7.024;2023-06-10T03:39:28;52.76;36.35;68.88;;
58303;Laerm;44109;52.398;7.024;2023-06-10T03:41:56;50.35;35.78;69.33;;
58303;Laerm;44109;52.398;7.024;2023-06-10T03:44:24;50.80;35.78;65.57;;
58303;Laerm;44109;52.398;7.024;2023-06-10T03:46:55;51.74;36.38;64.65;;
58303;Laerm;44109;52.398;7.024;2023-06-10T03:49:23;52.67;35.57;72.56;;
58303;Laerm;44109;52.398;7.024;2023-06-10T03:51:53;48.71;35.91;59.99;;
58303;Laerm;44109;52.398;7.024;2023-06-10T03:54:21;49.33;33.64;65.60;;
58303;Laerm;44109;52.398;7.024;2023-06-10T03:56:50;48.79;33.46;61.75;;
58303;Laerm;44109;52.398;7.024;2023-06-10T03:59:18;48.82;33.57;60.16;;
58303;Laerm;44109;52.398;7.024;2023-06-10T04:01:46;49.04;34.84;64.35;;
58303;Laerm;44109;52.398;7.024;2023-06-10T04:04:14;49.08;33.58;63.93;;
58303;Laerm;44109;52.398;7.024;2023-06-10T04:06:43;49.68;33.07;68.33;;
58303;Laerm;44109;52.398;7.024;2023-06-10T04:09:11;49.78;34.28;61.67;;
58303;Laerm;44109;52.398;7.024;2023-06-10T04:11:39;50.03;35.17;68.56;;
58303;Laerm;44109;52.398;7.024;2023-06-10T04:14:08;51.02;35.07;62.17;;
58303;Laerm;44109;52.398;7.024;2023-06-10T04:16:36;52.41;35.16;67.15;;
58303;Laerm;44109;52.398;7.024;2023-06-10T04:19:04;50.03;34.85;60.42;;
58303;Laerm;44109;52.398;7.024;2023-06-10T04:21:32;52.60;34.81;76.94;;
58303;Laerm;44109;52.398;7.024;2023-06-10T04:23:59;50.03;35.23;65.81;;
58303;Laerm;44109;52.398;7.024;2023-06-10T04:26:27;49.16;34.50;59.84;;
58303;Laerm;44109;52.398;7.024;2023-06-10T04:28:55;49.09;34.41;58.23;;
58303;Laerm;44109;52.398;7.024;2023-06-10T04:31:24;49.30;34.95;65.06;;
58303;Laerm;44109;52.398;7.024;2023-06-10T04:33:51;49.46;34.20;63.97;;
58303;Laerm;44109;52.398;7.024;2023-06-10T04:36:19;50.48;35.42;66.24;;
58303;Laerm;44109;52.398;7.024;2023-06-10T04:38:47;50.36;34.04;67.89;;
58303;Laerm;44109;52.398;7.024;2023-06-10T04:41:14;52.75;35.54;69.59;;
58303;Laerm;44109;52.398;7.024;2023-06-10T04:43:42;53.49;35.81;69.77;;
58303;Laerm;44109;52.398;7.024;2023-06-10T04:46:10;53.84;36.87;75.63;;
58303;Laerm;44109;52.398;7.024;2023-06-10T04:48:39;52.16;35.12;70.49;;
58303;Laerm;44109;52.398;7.024;2023-06-10T04:51:08;51.40;36.00;70.00;;
58303;Laerm;44109;52.398;7.024;2023-06-10T04:53:36;51.23;35.28;66.55;;
58303;Laerm;44109;52.398;7.024;2023-06-10T04:56:04;54.27;35.18;72.96;;
58303;Laerm;44109;52.398;7.024;2023-06-10T04:58:31;54.10;34.75;68.48;;
58303;Laerm;44109;52.398;7.024;2023-06-10T05:00:59;50.18;35.34;62.68;;
58303;Laerm;44109;52.398;7.024;2023-06-10T05:03:28;51.18;35.56;68.10;;
58303;Laerm;44109;52.398;7.024;2023-06-10T05:05:57;50.66;35.01;66.85;;
58303;Laerm;44109;52.398;7.024;2023-06-10T05:08:24;51.36;35.25;64.35;;
58303;Laerm;44109;52.398;7.024;2023-06-10T05:10:52;51.63;35.28;64.43;;
58303;Laerm;44109;52.398;7.024;2023-06-10T05:13:19;53.33;35.74;67.43;;
58303;Laerm;44109;52.398;7.024;2023-06-10T05:15:47;53.47;36.91;69.81;;
58303;Laerm;44109;52.398;7.024;2023-06-10T05:18:15;52.55;37.46;70.00;;
58303;Laerm;44109;52.398;7.024;2023-06-10T05:20:42;51.07;36.00;62.52;;
58303;Laerm;44109;52.398;7.024;2023-06-10T05:23:12;51.21;36.26;64.76;;
58303;Laerm;44109;52.398;7.024;2023-06-10T05:25:39;50.90;36.12;63.27;;
58303;Laerm;44109;52.398;7.024;2023-06-10T05:28:08;50.84;36.07;71.66;;
58303;Laerm;44109;52.398;7.024;2023-06-10T05:30:36;50.64;36.53;64.74;;
58303;Laerm;44109;52.398;7.024;2023-06-10T05:33:04;49.03;35.74;60.07;;
58303;Laerm;44109;52.398;7.024;2023-06-10T05:35:32;49.29;35.15;62.27;;
58303;Laerm;44109;52.398;7.024;2023-06-10T05:38:00;51.07;36.28;79.21;;
58303;Laerm;44109;52.398;7.024;2023-06-10T05:40:29;51.51;38.10;64.73;;
58303;Laerm;44109;52.398;7.024;2023-06-10T05:42:56;51.15;37.72;63.14;;
58303;Laerm;44109;52.398;7.024;2023-06-10T05:45:24;52.19;37.05;65.78;;
58303;Laerm;44109;52.398;7.024;2023-06-10T05:47:51;52.39;37.55;66.86;;
58303;Laerm;44109;52.398;7.024;2023-06-10T05:50:19;51.25;37.77;61.87;;
58303;Laerm;44109;52.398;7.024;2023-06-10T05:52:47;52.07;38.94;65.41;;
58303;Laerm;44109;52.398;7.024;2023-06-10T05:55:14;53.09;39.41;76.20;;
58303;Laerm;44109;52.398;7.024;2023-06-10T05:57:43;50.82;36.90;65.12;;
58303;Laerm;44109;52.398;7.024;2023-06-10T06:00:13;52.26;39.77;64.92;;
58303;Laerm;44109;52.398;7.024;2023-06-10T06:02:40;54.00;41.94;75.24;;
58303;Laerm;44109;52.398;7.024;2023-06-10T06:05:08;52.94;39.86;75.29;;
58303;Laerm;44109;52.398;7.024;2023-06-10T06:07:36;52.24;37.77;63.97;;
58303;Laerm;44109;52.398;7.024;2023-06-10T06:10:05;53.86;37.80;77.02;;
58303;Laerm;44109;52.398;7.024;2023-06-10T06:12:32;53.16;39.27;75.00;;
58303;Laerm;44109;52.398;7.024;2023-06-10T06:15:02;51.35;39.32;65.78;;
58303;Laerm;44109;52.398;7.024;2023-06-10T06:17:30;52.26;40.39;70.10;;
58303;Laerm;44109;52.398;7.024;2023-06-10T06:19:58;50.64;38.27;62.35;;
58303;Laerm;44109;52.398;7.024;2023-06-10T06:22:25;49.86;37.56;60.24;;
58303;Laerm;44109;52.398;7.024;2023-06-10T06:24:53;51.50;38.64;68.52;;
58303;Laerm;44109;52.398;7.024;2023-06-10T06:27:20;56.71;38.99;76.46;;
58303;Laerm;44109;52.398;7.024;2023-06-10T06:29:48;49.65;38.28;59.65;;
58303;Laerm;44109;52.398;7.024;2023-06-10T06:32:18;50.36;39.70;67.83;;
58303;Laerm;44109;52.398;7.024;2023-06-10T06:34:45;50.50;38.97;67.52;;
58303;Laerm;44109;52.398;7.024;2023-06-10T06:37:13;50.82;38.01;62.57;;
58303;Laerm;44109;52.398;7.024;2023-06-10T06:39:41;51.33;38.84;61.22;;
58303;Laerm;44109;52.398;7.024;2023-06-10T06:42:08;54.30;38.46;66.00;;
58303;Laerm;44109;52.398;7.024;2023-06-10T06:44:36;51.21;37.34;60.37;;
58303;Laerm;44109;52.398;7.024;2023-06-10T06:47:04;55.35;39.36;66.19;;
58303;Laerm;44109;52.398;7.024;2023-06-10T06:49:33;51.69;38.43;71.75;;
58303;Laerm;44109;52.398;7.024;2023-06-10T06:52:01;51.45;38.95;65.76;;
58303;Laerm;44109;52.398;7.024;2023-06-10T06:54:28;53.59;37.25;78.63;;
58303;Laerm;44109;52.398;7.024;2023-06-10T06:56:56;52.51;37.98;71.75;;
58303;Laerm;44109;52.398;7.024;2023-06-10T06:59:24;50.51;37.48;60.97;;
58303;Laerm;44109;52.398;7.024;2023-06-10T07:01:52;50.59;37.82;62.67;;
58303;Laerm;44109;52.398;7.024;2023-06-10T07:04:20;51.08;37.73;63.92;;
58303;Laerm;44109;52.398;7.024;2023-06-10T07:06:50;51.66;37.41;62.26;;
58303;Laerm;44109;52.398;7.024;2023-06-10T07:09:18;53.05;38.18;69.18;;
58303;Laerm;44109;52.398;7.024;2023-06-10T07:11:45;53.67;36.48;70.03;;
58303;Laerm;44109;52.398;7.024;2023-06-10T07:14:13;52.48;39.19;68.18;;
58303;Laerm;44109;52.398;7.024;2023-06-10T07:16:40;53.52;40.23;73.10;;
58303;Laerm;44109;52.398;7.024;2023-06-10T07:19:08;50.80;38.90;69.21;;
58303;Laerm;44109;52.398;7.024;2023-06-10T07:21:36;50.49;37.19;61.96;;
58303;Laerm;44109;52.398;7.024;2023-06-10T07:24:06;49.73;37.66;59.58;;
58303;Laerm;44109;52.398;7.024;2023-06-10T07:26:34;50.71;37.81;68.13;;
58303;Laerm;44109;52.398;7.024;2023-06-10T07:29:01;54.17;37.77;67.57;;
58303;Laerm;44109;52.398;7.024;2023-06-10T07:31:29;51.08;36.70;64.66;;
58303;Laerm;44109;52.398;7.024;2023-06-10T07:33:56;50.32;37.06;66.95;;
58303;Laerm;44109;52.398;7.024;2023-06-10T07:36:24;50.54;36.15;63.78;;
58303;Laerm;44109;52.398;7.024;2023-06-10T07:38:53;53.72;37.90;75.38;;
58303;Laerm;44109;52.398;7.024;2023-06-10T07:41:22;58.15;37.60;75.33;;
58303;Laerm;44109;52.398;7.024;2023-06-10T07:43:52;61.24;39.35;77.60;;
58303;Laerm;44109;52.398;7.024;2023-06-10T07:46:21;52.63;38.26;75.69;;
58303;Laerm;44109;52.398;7.024;2023-06-10T07:48:49;55.36;36.22;82.25;;
58303;Laerm;44109;52.398;7.024;2023-06-10T07:51:17;50.44;36.46;65.93;;
58303;Laerm;44109;52.398;7.024;2023-06-10T07:53:45;55.79;37.08;77.46;;
58303;Laerm;44109;52.398;7.024;2023-06-10T07:56:13;54.80;36.31;77.35;;
58303;Laerm;44109;52.398;7.024;2023-06-10T07:58:42;53.03;36.23;69.89;;
58303;Laerm;44109;52.398;7.024;2023-06-10T08:01:09;55.06;36.40;71.93;;
58303;Laerm;44109;52.398;7.024;2023-06-10T08:03:37;53.60;36.51;69.09;;
58303;Laerm;44109;52.398;7.024;2023-06-10T08:06:05;53.18;36.50;72.67;;
58303;Laerm;44109;52.398;7.024;2023-06-10T08:08:32;53.66;37.88;66.93;;
58303;Laerm;44109;52.398;7.024;2023-06-10T08:11:00;51.01;37.20;63.19;;
58303;Laerm;44109;52.398;7.024;2023-06-10T08:13:28;51.23;36.84;61.84;;
58303;Laerm;44109;52.398;7.024;2023-06-10T08:15:57;50.52;37.10;66.62;;
58303;Laerm;44109;52.398;7.024;2023-06-10T08:18:25;50.19;37.21;60.08;;
58303;Laerm;44109;52.398;7.024;2023-06-10T08:20:53;51.84;36.51;64.71;;
58303;Laerm;44109;52.398;7.024;2023-06-10T08:23:20;51.76;37.56;62.21;;
58303;Laerm;44109;52.398;7.024;2023-06-10T08:25:48;50.49;37.74;61.73;;
58303;Laerm;44109;52.398;7.024;2023-06-10T08:28:16;50.99;37.36;62.66;;
58303;Laerm;44109;52.398;7.024;2023-06-10T08:30:43;52.99;37.09;63.75;;
58303;Laerm;44109;52.398;7.024;2023-06-10T08:33:12;51.26;38.02;63.03;;
58303;Laerm;44109;52.398;7.024;2023-06-10T08:35:40;52.71;38.60;66.93;;
58303;Laerm;44109;52.398;7.024;2023-06-10T08:38:07;51.90;36.66;66.96;;
58303;Laerm;44109;52.398;7.024;2023-06-10T08:40:35;57.79;37.47;80.04;;
58303;Laerm;44109;52.398;7.024;2023-06-10T08:43:07;49.57;36.86;63.37;;
58303;Laerm;44109;52.398;7.024;2023-06-10T08:45:36;51.25;40.42;71.71;;
58303;Laerm;44109;52.398;7.024;2023-06-10T08:48:05;52.86;42.15;69.75;;
58303;Laerm;44109;52.398;7.024;2023-06-10T08:50:37;51.02;37.89;61.61;;
58303;Laerm;44109;52.398;7.024;2023-06-10T08:53:06;50.69;38.72;61.33;;
58303;Laerm;44109;52.398;7.024;2023-06-10T08:55:38;51.34;39.00;66.62;;
58303;Laerm;44109;52.398;7.024;2023-06-10T08:58:06;50.55;39.18;67.94;;
58303;Laerm;44109;52.398;7.024;2023-06-10T09:00:34;50.54;41.38;67.32;;
58303;Laerm;44109;52.398;7.024;2023-06-10T09:03:04;50.48;39.44;64.97;;
58303;Laerm;44109;52.398;7.024;2023-06-10T09:05:37;50.75;41.63;61.50;;
58303;Laerm;44109;52.398;7.024;2023-06-10T09:08:06;50.91;39.10;67.27;;
58303;Laerm;44109;52.398;7.024;2023-06-10T09:10:34;51.14;38.48;63.70;;
58303;Laerm;44109;52.398;7.024;2023-06-10T09:13:02;51.40;39.22;68.36;;
58303;Laerm;44109;52.398;7.024;2023-06-10T09:15:30;51.19;39.40;61.93;;
58303;Laerm;44109;52.398;7.024;2023-06-10T09:17:58;50.63;37.55;62.70;;
58303;Laerm;44109;52.398;7.024;2023-06-10T09:20:26;50.97;37.69;63.28;;
58303;Laerm;44109;52.398;7.024;2023-06-10T09:22:56;50.18;37.59;60.32;;
58303;Laerm;44109;52.398;7.024;2023-06-10T09:25:35;50.46;38.29;62.34;;
58303;Laerm;44109;52.398;7.024;2023-06-10T09:28:04;50.96;39.24;65.53;;
58303;Laerm;44109;52.398;7.024;2023-06-10T09:30:38;50.82;40.31;64.89;;
58303;Laerm;44109;52.398;7.024;2023-06-10T09:33:12;50.63;37.45;68.55;;
58303;Laerm;44109;52.398;7.024;2023-06-10T09:35:45;49.66;37.69;62.37;;
58303;Laerm;44109;52.398;7.024;2023-06-10T09:38:20;50.07;39.07;65.37;;
58303;Laerm;44109;52.398;7.024;2023-06-10T09:40:49;51.33;38.18;63.79;;
58303;Laerm;44109;52.398;7.024;2023-06-10T09:43:18;51.02;37.06;64.07;;
58303;Laerm;44109;52.398;7.024;2023-06-10T09:45:48;51.64;38.88;63.40;;
58303;Laerm;44109;52.398;7.024;2023-06-10T09:48:15;51.66;37.86;66.34;;
58303;Laerm;44109;52.398;7.024;2023-06-10T09:50:44;50.90;36.48;68.71;;
58303;Laerm;44109;52.398;7.024;2023-06-10T09:53:12;49.70;38.63;68.76;;
58303;Laerm;44109;52.398;7.024;2023-06-10T09:55:41;50.97;38.55;62.13;;
58303;Laerm;44109;52.398;7.024;2023-06-10T09:58:09;51.56;40.82;64.11;;
58303;Laerm;44109;52.398;7.024;2023-06-10T10:00:37;50.51;39.11;65.26;;
58303;Laerm;44109;52.398;7.024;2023-06-10T10:03:04;50.22;39.13;60.09;;
58303;Laerm;44109;52.398;7.024;2023-06-10T10:05:33;49.79;37.68;59.91;;
58303;Laerm;44109;52.398;7.024;2023-06-10T10:08:00;51.31;38.91;67.43;;
58303;Laerm;44109;52.398;7.024;2023-06-10T10:10:28;51.07;38.23;62.05;;
58303;Laerm;44109;52.398;7.024;2023-06-10T10:12:58;51.30;38.50;61.82;;
58303;Laerm;44109;52.398;7.024;2023-06-10T10:15:31;51.44;37.40;62.57;;
58303;Laerm;44109;52.398;7.024;2023-06-10T10:18:07;51.08;37.58;61.62;;
58303;Laerm;44109;52.398;7.024;2023-06-10T10:20:46;50.82;39.20;62.66;;
58303;Laerm;44109;52.398;7.024;2023-06-10T10:23:21;50.84;37.98;61.62;;
58303;Laerm;44109;52.398;7.024;2023-06-10T10:25:54;49.71;37.16;61.56;;
58303;Laerm;44109;52.398;7.024;2023-06-10T10:28:32;49.18;37.31;68.16;;
58303;Laerm;44109;52.398;7.024;2023-06-10T10:31:09;49.38;38.27;60.64;;
58303;Laerm;44109;52.398;7.024;2023-06-10T10:33:48;51.17;38.02;71.46;;
58303;Laerm;44109;52.398;7.024;2023-06-10T10:36:20;52.15;37.02;71.22;;
58303;Laerm;44109;52.398;7.024;2023-06-10T10:38:48;50.02;38.48;66.11;;
58303;Laerm;44109;52.398;7.024;2023-06-10T10:41:17;50.02;37.85;58.89;;
58303;Laerm;44109;52.398;7.024;2023-06-10T10:43:47;49.64;38.35;59.13;;
58303;Laerm;44109;52.398;7.024;2023-06-10T10:46:17;50.24;38.63;68.51;;
58303;Laerm;44109;52.398;7.024;2023-06-10T10:48:52;51.23;38.11;66.25;;
58303;Laerm;44109;52.398;7.024;2023-06-10T10:51:22;51.57;37.54;64.96;;
58303;Laerm;44109;52.398;7.024;2023-06-10T10:54:12;52.58;38.10;68.74;;
58303;Laerm;44109;52.398;7.024;2023-06-10T10:57:10;53.83;38.06;71.85;;
58303;Laerm;44109;52.398;7.024;2023-06-10T10:59:55;50.86;39.29;64.90;;
58303;Laerm;44109;52.398;7.024;2023-06-10T11:02:40;51.08;37.09;61.93;;
58303;Laerm;44109;52.398;7.024;2023-06-10T11:05:10;50.97;37.77;61.18;;
58303;Laerm;44109;52.398;7.024;2023-06-10T11:07:38;50.93;38.51;64.18;;
58303;Laerm;44109;52.398;7.024;2023-06-10T11:10:09;50.73;39.69;62.05;;
58303;Laerm;44109;52.398;7.024;2023-06-10T11:12:58;50.16;38.79;62.40;;
58303;Laerm;44109;52.398;7.024;2023-06-10T11:15:28;50.03;39.09;62.64;;
58303;Laerm;44109;52.398;7.024;2023-06-10T11:18:15;51.51;36.99;73.63;;
58303;Laerm;44109;52.398;7.024;2023-06-10T11:20:45;49.96;37.38;60.44;;
58303;Laerm;44109;52.398;7.024;2023-06-10T11:23:39;49.60;38.61;66.45;;
58303;Laerm;44109;52.398;7.024;2023-06-10T11:26:18;49.66;38.24;59.12;;
58303;Laerm;44109;52.398;7.024;2023-06-10T11:29:09;49.83;36.90;58.96;;
58303;Laerm;44109;52.398;7.024;2023-06-10T11:31:43;49.59;37.55;58.96;;
58303;Laerm;44109;52.398;7.024;2023-06-10T11:34:14;50.38;39.32;64.54;;
58303;Laerm;44109;52.398;7.024;2023-06-10T11:36:43;51.41;39.52;63.03;;
58303;Laerm;44109;52.398;7.024;2023-06-10T11:39:12;50.72;36.11;65.06;;
58303;Laerm;44109;52.398;7.024;2023-06-10T11:41:41;50.03;37.00;62.72;;
58303;Laerm;44109;52.398;7.024;2023-06-10T11:44:10;54.04;39.66;69.18;;
58303;Laerm;44109;52.398;7.024;2023-06-10T11:46:40;51.39;38.67;71.05;;
58303;Laerm;44109;52.398;7.024;2023-06-10T11:49:08;52.71;39.12;67.84;;
58303;Laerm;44109;52.398;7.024;2023-06-10T11:51:38;49.67;37.73;61.15;;
58303;Laerm;44109;52.398;7.024;2023-06-10T11:54:09;51.50;40.33;78.97;;
58303;Laerm;44109;52.398;7.024;2023-06-10T11:56:37;57.28;41.64;73.59;;
58303;Laerm;44109;52.398;7.024;2023-06-10T11:59:06;55.81;39.14;73.54;;
58303;Laerm;44109;52.398;7.024;2023-06-10T12:01:36;56.59;38.09;74.08;;
58303;Laerm;44109;52.398;7.024;2023-06-10T12:04:08;52.89;37.18;74.06;;
58303;Laerm;44109;52.398;7.024;2023-06-10T12:06:43;51.17;37.06;75.46;;
58303;Laerm;44109;52.398;7.024;2023-06-10T12:09:18;52.77;37.14;70.83;;
58303;Laerm;44109;52.398;7.024;2023-06-10T12:11:50;52.03;39.23;71.77;;
58303;Laerm;44109;52.398;7.024;2023-06-10T12:14:53;51.05;37.01;68.46;;
58303;Laerm;44109;52.398;7.024;2023-06-10T12:17:23;52.17;37.98;72.68;;
58303;Laerm;44109;52.398;7.024;2023-06-10T12:19:52;52.53;38.24;74.30;;
58303;Laerm;44109;52.398;7.024;2023-06-10T12:22:20;51.17;36.27;71.09;;
58303;Laerm;44109;52.398;7.024;2023-06-10T12:25:00;50.54;36.40;68.89;;
58303;Laerm;44109;52.398;7.024;2023-06-10T12:27:29;49.53;36.56;60.18;;
58303;Laerm;44109;52.398;7.024;2023-06-10T12:29:59;51.31;37.79;73.47;;
58303;Laerm;44109;52.398;7.024;2023-06-10T12:32:38;51.64;38.33;66.63;;
58303;Laerm;44109;52.398;7.024;2023-06-10T12:35:09;50.86;40.16;63.09;;
58303;Laerm;44109;52.398;7.024;2023-06-10T12:37:38;51.68;37.97;69.51;;
58303;Laerm;44109;52.398;7.024;2023-06-10T12:40:07;52.00;37.91;65.01;;
58303;Laerm;44109;52.398;7.024;2023-06-10T12:42:36;52.29;38.24;72.54;;
58303;Laerm;44109;52.398;7.024;2023-06-10T12:45:06;51.53;37.80;72.39;;
58303;Laerm;44109;52.398;7.024;2023-06-10T12:47:37;51.25;39.14;67.35;;
58303;Laerm;44109;52.398;7.024;2023-06-10T12:50:08;52.52;40.32;68.54;;
58303;Laerm;44109;52.398;7.024;2023-06-10T12:52:38;51.73;40.39;69.14;;
58303;Laerm;44109;52.398;7.024;2023-06-10T12:55:06;51.60;35.89;73.22;;
58303;Laerm;44109;52.398;7.024;2023-06-10T12:57:34;50.23;36.37;61.50;;
58303;Laerm;44109;52.398;7.024;2023-06-10T13:00:02;49.92;37.46;58.98;;
58303;Laerm;44109;52.398;7.024;2023-06-10T13:02:34;50.13;37.78;66.39;;
58303;Laerm;44109;52.398;7.024;2023-06-10T13:05:02;50.79;36.25;70.95;;
58303;Laerm;44109;52.398;7.024;2023-06-10T13:07:31;50.90;37.58;67.73;;
58303;Laerm;44109;52.398;7.024;2023-06-10T13:09:59;50.56;36.35;67.02;;
58303;Laerm;44109;52.398;7.024;2023-06-10T13:12:27;50.26;38.45;62.53;;
58303;Laerm;44109;52.398;7.024;2023-06-10T13:14:55;50.58;36.85;68.88;;
58303;Laerm;44109;52.398;7.024;2023-06-10T13:17:23;50.69;38.67;63.15;;
58303;Laerm;44109;52.398;7.024;2023-06-10T13:19:51;50.43;37.70;67.49;;
58303;Laerm;44109;52.398;7.024;2023-06-10T13:22:19;51.56;40.19;65.20;;
58303;Laerm;44109;52.398;7.024;2023-06-10T13:24:49;49.83;37.97;65.07;;
58303;Laerm;44109;52.398;7.024;2023-06-10T13:27:17;49.81;38.23;61.72;;
58303;Laerm;44109;52.398;7.024;2023-06-10T13:29:44;50.11;37.72;63.83;;
58303;Laerm;44109;52.398;7.024;2023-06-10T13:32:12;49.90;35.11;66.95;;
58303;Laerm;44109;52.398;7.024;2023-06-10T13:34:40;49.78;35.43;60.88;;
58303;Laerm;44109;52.398;7.024;2023-06-10T13:37:07;50.83;38.38;64.99;;
58303;Laerm;44109;52.398;7.024;2023-06-10T13:39:35;51.47;37.51;66.00;;
58303;Laerm;44109;52.398;7.024;2023-06-10T13:42:04;50.13;37.49;62.50;;
58303;Laerm;44109;52.398;7.024;2023-06-10T13:44:34;50.07;37.09;59.50;;
58303;Laerm;44109;52.398;7.024;2023-06-10T13:47:03;50.21;37.99;64.93;;
58303;Laerm;44109;52.398;7.024;2023-06-10T13:49:30;50.12;35.90;65.68;;
58303;Laerm;44109;52.398;7.024;2023-06-10T13:51:58;50.10;38.60;60.19;;
58303;Laerm;44109;52.398;7.024;2023-06-10T13:54:25;50.19;35.35;69.07;;
58303;Laerm;44109;52.398;7.024;2023-06-10T13:56:54;49.68;35.10;64.73;;
58303;Laerm;44109;52.398;7.024;2023-06-10T13:59:23;49.78;35.73;59.21;;
58303;Laerm;44109;52.398;7.024;2023-06-10T14:01:50;50.76;38.35;69.78;;